首页
METAR-TAF:

METAR-TAF

机场 :

Hermiston Municipal Airport

Hermiston, 俄勒冈州, 美国

纬度: 45-49-33N, 经度: 119-15-40W, 海拔: 194米

当前天气观测

该预报发布于49分钟前的22:53 UTC
风速22节,风向西转西南,有时为34节阵风
温度 8°C
湿度 46%
气压 1008 hPa
能見度: 16.1公里
天空无云

METAR: KHRI 262253Z AUTO 25022G34KT 10SM CLR 08/M03 A2976 RMK AO2 PK WND 26034/2204 SLP078 T00831033

时间: 15:42 (23:42 UTC)


TAF: 丢失

超过4000个机场的气象观测和天气预报(METAR&TAF报告)。

可查询的气象台以黄色和红色小点在地图上表示。

将鼠标移到小点上方,可查看气象台名称。

然后点击查看天气观测和预报。

如需切换地图:点击带黑十字的绿色按钮放大地图;点击带横线的绿色按钮缩小地图;或者点击绿色箭头查看邻近地区的地图。


METAR-TAF: